sensor_id;sensor_type;location;lat;lon;timestamp;pressure;altitude;pressure_sealevel;temperature;humidity
67013;BME280;53926;47.406;19.188;2023-02-18T00:01:33;100584.16;;;10.21;98.97
67013;BME280;53926;47.406;19.188;2023-02-18T00:03:59;100591.75;;;10.09;100.00
67013;BME280;53926;47.406;19.188;2023-02-18T00:06:31;100580.97;;;10.19;99.86
67013;BME280;53926;47.406;19.188;2023-02-18T00:08:59;100569.56;;;10.20;100.00
67013;BME280;53926;47.406;19.188;2023-02-18T00:11:31;100566.56;;;10.30;99.70
67013;BME280;53926;47.406;19.188;2023-02-18T00:14:01;100569.59;;;10.33;99.90
67013;BME280;53926;47.406;19.188;2023-02-18T00:16:29;100561.34;;;10.30;100.00
67013;BME280;53926;47.406;19.188;2023-02-18T00:18:58;100556.78;;;10.38;100.00
67013;BME280;53926;47.406;19.188;2023-02-18T00:21:25;100553.78;;;10.62;100.00
67013;BME280;53926;47.406;19.188;2023-02-18T00:23:52;100549.00;;;10.59;100.00
67013;BME280;53926;47.406;19.188;2023-02-18T00:26:19;100549.53;;;10.94;98.85
67013;BME280;53926;47.406;19.188;2023-02-18T00:28:49;100557.50;;;11.26;97.56
67013;BME280;53926;47.406;19.188;2023-02-18T00:31:26;100547.56;;;11.48;95.98
67013;BME280;53926;47.406;19.188;2023-02-18T00:33:53;100542.53;;;11.60;95.16
67013;BME280;53926;47.406;19.188;2023-02-18T00:36:21;100550.78;;;11.50;95.76
67013;BME280;53926;47.406;19.188;2023-02-18T00:38:55;100529.44;;;11.67;94.90
67013;BME280;53926;47.406;19.188;2023-02-18T00:41:23;100544.63;;;11.76;94.41
67013;BME280;53926;47.406;19.188;2023-02-18T00:43:51;100548.47;;;11.74;94.54
67013;BME280;53926;47.406;19.188;2023-02-18T00:46:18;100554.47;;;11.74;94.72
67013;BME280;53926;47.406;19.188;2023-02-18T00:48:45;100539.81;;;11.80;94.36
67013;BME280;53926;47.406;19.188;2023-02-18T00:51:11;100538.84;;;11.74;94.93
67013;BME280;53926;47.406;19.188;2023-02-18T00:53:39;100526.88;;;11.60;95.94
67013;BME280;53926;47.406;19.188;2023-02-18T00:56:06;100524.91;;;11.49;96.86
67013;BME280;53926;47.406;19.188;2023-02-18T00:58:34;100536.53;;;11.53;96.77
67013;BME280;53926;47.406;19.188;2023-02-18T01:01:02;100539.19;;;11.46;97.35
67013;BME280;53926;47.406;19.188;2023-02-18T01:03:32;100533.91;;;11.53;97.45
67013;BME280;53926;47.406;19.188;2023-02-18T01:05:59;100539.72;;;11.61;96.64
67013;BME280;53926;47.406;19.188;2023-02-18T01:08:28;100536.22;;;11.74;96.20
67013;BME280;53926;47.406;19.188;2023-02-18T01:10:57;100542.28;;;11.68;96.28
67013;BME280;53926;47.406;19.188;2023-02-18T01:13:25;100541.28;;;11.62;96.70
67013;BME280;53926;47.406;19.188;2023-02-18T01:15:52;100542.06;;;11.70;96.54
67013;BME280;53926;47.406;19.188;2023-02-18T01:18:20;100540.41;;;11.82;95.73
67013;BME280;53926;47.406;19.188;2023-02-18T01:20:47;100543.47;;;11.72;96.46
67013;BME280;53926;47.406;19.188;2023-02-18T01:23:13;100540.56;;;11.87;95.58
67013;BME280;53926;47.406;19.188;2023-02-18T01:25:40;100546.38;;;11.89;95.57
67013;BME280;53926;47.406;19.188;2023-02-18T01:28:10;100533.34;;;11.89;95.61
67013;BME280;53926;47.406;19.188;2023-02-18T01:30:37;100541.16;;;11.96;95.12
67013;BME280;53926;47.406;19.188;2023-02-18T01:33:04;100541.00;;;12.16;93.91
67013;BME280;53926;47.406;19.188;2023-02-18T01:35:31;100528.97;;;12.15;93.83
67013;BME280;53926;47.406;19.188;2023-02-18T01:37:57;100537.31;;;11.98;94.71
67013;BME280;53926;47.406;19.188;2023-02-18T01:40:27;100521.94;;;12.15;93.45
67013;BME280;53926;47.406;19.188;2023-02-18T01:42:54;100525.19;;;12.11;93.53
67013;BME280;53926;47.406;19.188;2023-02-18T01:48:22;100525.91;;;12.25;92.02
67013;BME280;53926;47.406;19.188;2023-02-18T01:56:12;100528.13;;;12.21;91.39
67013;BME280;53926;47.406;19.188;2023-02-18T01:58:40;100537.63;;;12.41;90.07
67013;BME280;53926;47.406;19.188;2023-02-18T02:01:08;100520.06;;;12.23;90.91
67013;BME280;53926;47.406;19.188;2023-02-18T02:03:35;100530.47;;;12.29;90.57
67013;BME280;53926;47.406;19.188;2023-02-18T02:06:08;100527.03;;;12.36;90.23
67013;BME280;53926;47.406;19.188;2023-02-18T02:08:38;100523.06;;;12.26;90.66
67013;BME280;53926;47.406;19.188;2023-02-18T02:17:12;100513.34;;;12.33;90.24
67013;BME280;53926;47.406;19.188;2023-02-18T02:31:09;100498.72;;;12.95;86.25
67013;BME280;53926;47.406;19.188;2023-02-18T02:39:19;100501.03;;;13.21;83.90
67013;BME280;53926;47.406;19.188;2023-02-18T02:42:17;100493.78;;;13.23;83.63
67013;BME280;53926;47.406;19.188;2023-02-18T02:45:10;100494.41;;;13.56;81.37
67013;BME280;53926;47.406;19.188;2023-02-18T02:47:55;100501.91;;;13.52;81.32
67013;BME280;53926;47.406;19.188;2023-02-18T02:51:08;100496.25;;;13.67;80.39
67013;BME280;53926;47.406;19.188;2023-02-18T02:53:39;100501.25;;;13.69;80.07
67013;BME280;53926;47.406;19.188;2023-02-18T02:56:20;100508.63;;;13.60;80.17
67013;BME280;53926;47.406;19.188;2023-02-18T02:59:00;100495.13;;;13.63;80.13
67013;BME280;53926;47.406;19.188;2023-02-18T03:01:57;100500.84;;;13.53;80.82
67013;BME280;53926;47.406;19.188;2023-02-18T03:16:51;100511.50;;;13.70;79.06
67013;BME280;53926;47.406;19.188;2023-02-18T03:18:51;100516.50;;;13.72;78.92
67013;BME280;53926;47.406;19.188;2023-02-18T03:21:25;100532.19;;;13.60;79.62
67013;BME280;53926;47.406;19.188;2023-02-18T03:26:23;100528.84;;;13.53;79.77
67013;BME280;53926;47.406;19.188;2023-02-18T03:28:52;100524.38;;;13.41;80.37
67013;BME280;53926;47.406;19.188;2023-02-18T03:31:24;100517.59;;;13.52;79.92
67013;BME280;53926;47.406;19.188;2023-02-18T03:34:00;100531.13;;;13.49;80.24
67013;BME280;53926;47.406;19.188;2023-02-18T03:36:28;100542.94;;;13.52;80.12
67013;BME280;53926;47.406;19.188;2023-02-18T03:39:17;100522.19;;;13.38;80.88
67013;BME280;53926;47.406;19.188;2023-02-18T03:41:44;100532.91;;;13.49;80.26
67013;BME280;53926;47.406;19.188;2023-02-18T03:44:12;100530.16;;;13.44;80.62
67013;BME280;53926;47.406;19.188;2023-02-18T03:46:40;100541.72;;;13.36;81.20
67013;BME280;53926;47.406;19.188;2023-02-18T03:49:10;100554.59;;;13.37;81.41
67013;BME280;53926;47.406;19.188;2023-02-18T03:51:37;100553.69;;;13.25;82.02
67013;BME280;53926;47.406;19.188;2023-02-18T03:54:04;100549.13;;;13.20;82.26
67013;BME280;53926;47.406;19.188;2023-02-18T03:56:31;100553.25;;;13.10;83.13
67013;BME280;53926;47.406;19.188;2023-02-18T03:58:57;100558.50;;;13.10;83.24
67013;BME280;53926;47.406;19.188;2023-02-18T04:01:24;100542.50;;;12.99;83.94
67013;BME280;53926;47.406;19.188;2023-02-18T04:03:51;100560.50;;;13.07;83.68
67013;BME280;53926;47.406;19.188;2023-02-18T04:06:21;100563.09;;;12.89;84.98
67013;BME280;53926;47.406;19.188;2023-02-18T04:08:48;100564.41;;;12.98;84.51
67013;BME280;53926;47.406;19.188;2023-02-18T04:11:15;100549.47;;;13.05;84.07
67013;BME280;53926;47.406;19.188;2023-02-18T04:13:42;100563.97;;;12.83;85.41
67013;BME280;53926;47.406;19.188;2023-02-18T04:16:08;100560.41;;;12.77;86.11
67013;BME280;53926;47.406;19.188;2023-02-18T04:18:35;100555.47;;;12.87;85.90
67013;BME280;53926;47.406;19.188;2023-02-18T04:21:02;100548.16;;;12.96;85.37
67013;BME280;53926;47.406;19.188;2023-02-18T04:23:29;100555.87;;;12.91;86.01
67013;BME280;53926;47.406;19.188;2023-02-18T04:25:55;100558.91;;;12.88;86.18
67013;BME280;53926;47.406;19.188;2023-02-18T04:28:22;100562.97;;;12.84;86.56
67013;BME280;53926;47.406;19.188;2023-02-18T04:30:49;100550.75;;;12.78;86.98
67013;BME280;53926;47.406;19.188;2023-02-18T04:33:15;100552.69;;;12.64;87.67
67013;BME280;53926;47.406;19.188;2023-02-18T04:35:42;100557.19;;;12.75;87.10
67013;BME280;53926;47.406;19.188;2023-02-18T04:38:10;100563.06;;;12.70;87.12
67013;BME280;53926;47.406;19.188;2023-02-18T04:40:37;100565.87;;;12.76;86.93
67013;BME280;53926;47.406;19.188;2023-02-18T04:43:03;100565.44;;;12.79;86.67
67013;BME280;53926;47.406;19.188;2023-02-18T04:45:30;100543.03;;;12.64;87.32
67013;BME280;53926;47.406;19.188;2023-02-18T04:47:57;100567.56;;;12.63;87.52
67013;BME280;53926;47.406;19.188;2023-02-18T04:50:23;100563.03;;;12.52;88.12
67013;BME280;53926;47.406;19.188;2023-02-18T04:52:50;100567.81;;;12.55;88.02
67013;BME280;53926;47.406;19.188;2023-02-18T04:55:17;100567.88;;;12.48;88.45
67013;BME280;53926;47.406;19.188;2023-02-18T04:57:44;100574.31;;;12.46;88.95
67013;BME280;53926;47.406;19.188;2023-02-18T05:00:14;100571.94;;;12.44;88.90
67013;BME280;53926;47.406;19.188;2023-02-18T05:02:41;100582.59;;;12.43;89.39
67013;BME280;53926;47.406;19.188;2023-02-18T05:05:08;100587.72;;;12.56;89.21
67013;BME280;53926;47.406;19.188;2023-02-18T05:07:35;100588.28;;;12.58;89.95
67013;BME280;53926;47.406;19.188;2023-02-18T05:10:03;100593.31;;;12.34;92.68
67013;BME280;53926;47.406;19.188;2023-02-18T05:12:30;100585.75;;;12.26;93.53
67013;BME280;53926;47.406;19.188;2023-02-18T05:14:56;100595.03;;;12.15;94.73
67013;BME280;53926;47.406;19.188;2023-02-18T05:17:23;100597.56;;;12.29;94.43
67013;BME280;53926;47.406;19.188;2023-02-18T05:19:49;100600.78;;;12.24;95.09
67013;BME280;53926;47.406;19.188;2023-02-18T05:22:16;100595.41;;;12.19;95.19
67013;BME280;53926;47.406;19.188;2023-02-18T05:24:43;100597.47;;;12.10;95.34
67013;BME280;53926;47.406;19.188;2023-02-18T05:27:09;100591.66;;;12.08;94.76
67013;BME280;53926;47.406;19.188;2023-02-18T05:29:36;100597.47;;;12.10;94.54
67013;BME280;53926;47.406;19.188;2023-02-18T05:32:03;100590.16;;;11.94;95.30
67013;BME280;53926;47.406;19.188;2023-02-18T05:34:29;100598.56;;;11.96;94.81
67013;BME280;53926;47.406;19.188;2023-02-18T05:36:56;100602.16;;;11.95;94.81
67013;BME280;53926;47.406;19.188;2023-02-18T05:39:22;100606.59;;;11.88;95.05
67013;BME280;53926;47.406;19.188;2023-02-18T05:41:49;100610.47;;;11.78;95.77
67013;BME280;53926;47.406;19.188;2023-02-18T05:44:16;100615.22;;;11.88;95.15
67013;BME280;53926;47.406;19.188;2023-02-18T05:47:04;100628.84;;;11.90;94.69
67013;BME280;53926;47.406;19.188;2023-02-18T05:49:32;100624.50;;;11.77;95.79
67013;BME280;53926;47.406;19.188;2023-02-18T05:52:00;100642.31;;;11.87;95.14
67013;BME280;53926;47.406;19.188;2023-02-18T05:54:26;100651.22;;;11.73;96.14
67013;BME280;53926;47.406;19.188;2023-02-18T05:56:54;100654.25;;;11.70;96.50
67013;BME280;53926;47.406;19.188;2023-02-18T05:59:20;100655.41;;;11.80;95.91
67013;BME280;53926;47.406;19.188;2023-02-18T06:01:47;100666.63;;;11.81;95.87
67013;BME280;53926;47.406;19.188;2023-02-18T06:04:14;100676.66;;;11.84;95.80
67013;BME280;53926;47.406;19.188;2023-02-18T06:06:41;100685.09;;;11.79;96.01
67013;BME280;53926;47.406;19.188;2023-02-18T06:09:08;100686.91;;;11.79;96.32
67013;BME280;53926;47.406;19.188;2023-02-18T06:11:35;100689.94;;;11.76;96.65
67013;BME280;53926;47.406;19.188;2023-02-18T06:14:02;100686.75;;;11.74;96.67
67013;BME280;53926;47.406;19.188;2023-02-18T06:16:29;100683.06;;;11.95;94.80
67013;BME280;53926;47.406;19.188;2023-02-18T06:18:56;100678.31;;;11.78;95.98
67013;BME280;53926;47.406;19.188;2023-02-18T06:21:23;100680.03;;;11.98;94.47
67013;BME280;53926;47.406;19.188;2023-02-18T06:23:50;100686.66;;;12.01;94.70
67013;BME280;53926;47.406;19.188;2023-02-18T06:26:17;100699.69;;;12.07;95.42
67013;BME280;53926;47.406;19.188;2023-02-18T06:28:44;100693.09;;;11.98;96.15
67013;BME280;53926;47.406;19.188;2023-02-18T06:31:10;100699.94;;;11.99;97.19
67013;BME280;53926;47.406;19.188;2023-02-18T06:33:37;100706.16;;;11.91;98.82
67013;BME280;53926;47.406;19.188;2023-02-18T06:36:06;100702.56;;;11.92;98.67
67013;BME280;53926;47.406;19.188;2023-02-18T06:38:34;100694.91;;;11.84;99.71
67013;BME280;53926;47.406;19.188;2023-02-18T06:41:01;100700.00;;;11.66;100.00
67013;BME280;53926;47.406;19.188;2023-02-18T06:43:28;100710.25;;;11.60;100.00
67013;BME280;53926;47.406;19.188;2023-02-18T06:45:55;100707.44;;;11.55;100.00
67013;BME280;53926;47.406;19.188;2023-02-18T06:48:22;100710.47;;;11.25;100.00
67013;BME280;53926;47.406;19.188;2023-02-18T06:50:49;100705.69;;;11.29;100.00
67013;BME280;53926;47.406;19.188;2023-02-18T06:53:16;100698.84;;;11.28;100.00
67013;BME280;53926;47.406;19.188;2023-02-18T06:55:43;100698.66;;;11.43;100.00
67013;BME280;53926;47.406;19.188;2023-02-18T06:58:11;100697.00;;;11.49;100.00
67013;BME280;53926;47.406;19.188;2023-02-18T07:00:38;100703.59;;;11.71;100.00
67013;BME280;53926;47.406;19.188;2023-02-18T07:03:05;100713.59;;;11.88;100.00
67013;BME280;53926;47.406;19.188;2023-02-18T07:05:33;100709.53;;;11.92;100.00
67013;BME280;53926;47.406;19.188;2023-02-18T07:07:59;100710.00;;;11.95;100.00
67013;BME280;53926;47.406;19.188;2023-02-18T07:10:26;100713.09;;;12.18;100.00
67013;BME280;53926;47.406;19.188;2023-02-18T07:12:53;100720.75;;;12.12;100.00
67013;BME280;53926;47.406;19.188;2023-02-18T07:15:19;100716.22;;;11.94;100.00
67013;BME280;53926;47.406;19.188;2023-02-18T07:17:50;100710.31;;;12.12;100.00
67013;BME280;53926;47.406;19.188;2023-02-18T07:20:18;100722.53;;;12.19;100.00
67013;BME280;53926;47.406;19.188;2023-02-18T07:22:46;100720.91;;;12.24;100.00
67013;BME280;53926;47.406;19.188;2023-02-18T07:25:13;100718.75;;;12.14;100.00
67013;BME280;53926;47.406;19.188;2023-02-18T07:27:40;100724.94;;;12.20;100.00
67013;BME280;53926;47.406;19.188;2023-02-18T07:30:07;100721.69;;;12.31;100.00
67013;BME280;53926;47.406;19.188;2023-02-18T07:32:35;100719.75;;;12.52;100.00
67013;BME280;53926;47.406;19.188;2023-02-18T07:35:03;100716.25;;;12.33;100.00
67013;BME280;53926;47.406;19.188;2023-02-18T07:37:30;100707.03;;;12.62;99.22
67013;BME280;53926;47.406;19.188;2023-02-18T07:39:57;100712.00;;;12.70;98.52
67013;BME280;53926;47.406;19.188;2023-02-18T07:42:24;100702.75;;;12.75;97.93
67013;BME280;53926;47.406;19.188;2023-02-18T07:44:51;100697.84;;;12.85;97.02
67013;BME280;53926;47.406;19.188;2023-02-18T07:47:17;100699.84;;;12.83;96.69
67013;BME280;53926;47.406;19.188;2023-02-18T07:49:45;100709.31;;;12.84;97.65
67013;BME280;53926;47.406;19.188;2023-02-18T07:52:13;100704.28;;;12.82;96.61
67013;BME280;53926;47.406;19.188;2023-02-18T07:54:41;100699.50;;;13.04;95.19
67013;BME280;53926;47.406;19.188;2023-02-18T07:57:07;100698.63;;;13.11;95.61
67013;BME280;53926;47.406;19.188;2023-02-18T07:59:34;100698.47;;;13.56;93.51
67013;BME280;53926;47.406;19.188;2023-02-18T08:02:01;100702.47;;;13.40;94.00
67013;BME280;53926;47.406;19.188;2023-02-18T08:04:28;100702.13;;;13.30;92.05
67013;BME280;53926;47.406;19.188;2023-02-18T08:06:55;100697.47;;;13.75;90.67
67013;BME280;53926;47.406;19.188;2023-02-18T08:09:22;100704.59;;;13.68;90.74
67013;BME280;53926;47.406;19.188;2023-02-18T08:11:48;100704.72;;;13.55;91.41
67013;BME280;53926;47.406;19.188;2023-02-18T08:14:18;100704.56;;;13.87;89.47
67013;BME280;53926;47.406;19.188;2023-02-18T08:16:44;100702.28;;;14.09;87.59
67013;BME280;53926;47.406;19.188;2023-02-18T08:19:11;100698.91;;;14.39;85.51
67013;BME280;53926;47.406;19.188;2023-02-18T08:21:38;100701.09;;;15.43;81.10
67013;BME280;53926;47.406;19.188;2023-02-18T08:24:04;100703.72;;;16.19;77.08
67013;BME280;53926;47.406;19.188;2023-02-18T08:26:33;100708.53;;;16.39;74.14
67013;BME280;53926;47.406;19.188;2023-02-18T08:28:59;100702.22;;;17.03;71.82
67013;BME280;53926;47.406;19.188;2023-02-18T08:31:28;100703.53;;;17.40;68.85
67013;BME280;53926;47.406;19.188;2023-02-18T08:33:56;100706.38;;;16.82;71.67
67013;BME280;53926;47.406;19.188;2023-02-18T08:36:23;100699.62;;;17.42;68.49
67013;BME280;53926;47.406;19.188;2023-02-18T08:38:50;100703.59;;;16.89;68.71
67013;BME280;53926;47.406;19.188;2023-02-18T08:41:17;100705.88;;;16.68;69.11
67013;BME280;53926;47.406;19.188;2023-02-18T08:43:48;100701.34;;;16.35;71.18
67013;BME280;53926;47.406;19.188;2023-02-18T08:46:16;100695.75;;;16.77;69.04
67013;BME280;53926;47.406;19.188;2023-02-18T08:49:00;100692.34;;;16.93;66.54
67013;BME280;53926;47.406;19.188;2023-02-18T08:51:27;100692.78;;;17.41;65.33
67013;BME280;53926;47.406;19.188;2023-02-18T08:53:55;100699.25;;;16.83;67.08
67013;BME280;53926;47.406;19.188;2023-02-18T08:56:21;100691.78;;;17.25;66.09
67013;BME280;53926;47.406;19.188;2023-02-18T08:58:48;100679.38;;;18.36;60.58
67013;BME280;53926;47.406;19.188;2023-02-18T09:01:15;100682.38;;;17.51;63.90
67013;BME280;53926;47.406;19.188;2023-02-18T09:03:42;100679.88;;;17.84;62.72
67013;BME280;53926;47.406;19.188;2023-02-18T09:06:08;100673.81;;;18.05;60.38
67013;BME280;53926;47.406;19.188;2023-02-18T09:08:35;100688.00;;;17.82;61.77
67013;BME280;53926;47.406;19.188;2023-02-18T09:11:02;100685.72;;;18.40;59.25
67013;BME280;53926;47.406;19.188;2023-02-18T09:13:31;100694.19;;;18.43;60.10
67013;BME280;53926;47.406;19.188;2023-02-18T09:16:00;100700.50;;;18.74;58.19
67013;BME280;53926;47.406;19.188;2023-02-18T09:18:27;100696.53;;;17.67;61.32
67013;BME280;53926;47.406;19.188;2023-02-18T09:20:56;100694.47;;;16.79;64.99
67013;BME280;53926;47.406;19.188;2023-02-18T09:23:25;100707.34;;;15.89;68.86
67013;BME280;53926;47.406;19.188;2023-02-18T09:25:52;100691.19;;;15.22;72.51
67013;BME280;53926;47.406;19.188;2023-02-18T09:28:19;100690.84;;;14.94;72.74
67013;BME280;53926;47.406;19.188;2023-02-18T09:30:46;100688.44;;;14.39;76.46
67013;BME280;53926;47.406;19.188;2023-02-18T09:33:13;100694.28;;;14.53;76.58
67013;BME280;53926;47.406;19.188;2023-02-18T09:35:44;100698.09;;;14.38;78.01
67013;BME280;53926;47.406;19.188;2023-02-18T09:38:14;100683.88;;;14.46;77.89
67013;BME280;53926;47.406;19.188;2023-02-18T09:40:46;100677.91;;;14.69;76.93
67013;BME280;53926;47.406;19.188;2023-02-18T09:43:38;100677.94;;;14.81;75.20
67013;BME280;53926;47.406;19.188;2023-02-18T09:46:20;100664.84;;;14.93;75.26
67013;BME280;53926;47.406;19.188;2023-02-18T09:48:50;100666.91;;;15.02;75.38
67013;BME280;53926;47.406;19.188;2023-02-18T09:51:17;100675.22;;;14.88;76.35
67013;BME280;53926;47.406;19.188;2023-02-18T09:53:45;100670.41;;;14.73;75.94
67013;BME280;53926;47.406;19.188;2023-02-18T09:56:25;100673.97;;;14.48;77.71
67013;BME280;53926;47.406;19.188;2023-02-18T09:58:53;100675.66;;;14.84;76.70
67013;BME280;53926;47.406;19.188;2023-02-18T10:01:32;100672.34;;;14.89;75.42
67013;BME280;53926;47.406;19.188;2023-02-18T10:04:05;100672.47;;;14.82;75.95
67013;BME280;53926;47.406;19.188;2023-02-18T10:06:35;100673.34;;;15.83;71.91
67013;BME280;53926;47.406;19.188;2023-02-18T10:09:34;100674.25;;;16.17;68.88
67013;BME280;53926;47.406;19.188;2023-02-18T10:14:37;100679.12;;;15.97;68.17
67013;BME280;53926;47.406;19.188;2023-02-18T10:17:04;100666.72;;;16.38;67.64
67013;BME280;53926;47.406;19.188;2023-02-18T10:19:34;100666.25;;;16.12;68.30
67013;BME280;53926;47.406;19.188;2023-02-18T10:22:04;100661.88;;;16.01;69.62
67013;BME280;53926;47.406;19.188;2023-02-18T10:24:39;100663.06;;;16.39;67.26
67013;BME280;53926;47.406;19.188;2023-02-18T10:27:07;100661.81;;;15.84;70.03
67013;BME280;53926;47.406;19.188;2023-02-18T10:29:37;100668.03;;;15.42;72.18
67013;BME280;53926;47.406;19.188;2023-02-18T10:32:20;100655.34;;;16.03;69.63
67013;BME280;53926;47.406;19.188;2023-02-18T10:34:53;100647.84;;;16.41;67.22
67013;BME280;53926;47.406;19.188;2023-02-18T10:40:19;100652.47;;;17.02;64.26
67013;BME280;53926;47.406;19.188;2023-02-18T10:50:57;100621.38;;;19.11;55.97
67013;BME280;53926;47.406;19.188;2023-02-18T10:53:39;100622.63;;;18.29;57.62
67013;BME280;53926;47.406;19.188;2023-02-18T10:56:31;100631.44;;;18.45;58.48
67013;BME280;53926;47.406;19.188;2023-02-18T10:59:25;100621.13;;;17.17;62.24
67013;BME280;53926;47.406;19.188;2023-02-18T11:04:34;100622.56;;;16.23;66.61
67013;BME280;53926;47.406;19.188;2023-02-18T11:07:11;100626.28;;;16.39;66.23
67013;BME280;53926;47.406;19.188;2023-02-18T11:09:55;100616.72;;;16.50;67.12
67013;BME280;53926;47.406;19.188;2023-02-18T11:12:26;100618.22;;;16.96;64.27
67013;BME280;53926;47.406;19.188;2023-02-18T11:17:34;100617.69;;;15.98;68.29
67013;BME280;53926;47.406;19.188;2023-02-18T11:22:46;100609.69;;;15.52;70.66
67013;BME280;53926;47.406;19.188;2023-02-18T11:25:26;100615.09;;;15.45;72.37
67013;BME280;53926;47.406;19.188;2023-02-18T11:27:59;100613.41;;;15.27;73.13
67013;BME280;53926;47.406;19.188;2023-02-18T11:30:34;100614.81;;;14.94;73.85
67013;BME280;53926;47.406;19.188;2023-02-18T11:35:57;100598.03;;;15.07;74.27
67013;BME280;53926;47.406;19.188;2023-02-18T11:38:36;100594.03;;;15.05;74.65
67013;BME280;53926;47.406;19.188;2023-02-18T11:41:07;100597.13;;;15.01;75.72
67013;BME280;53926;47.406;19.188;2023-02-18T11:43:35;100596.87;;;15.15;74.96
67013;BME280;53926;47.406;19.188;2023-02-18T11:46:27;100588.69;;;15.11;75.40
67013;BME280;53926;47.406;19.188;2023-02-18T11:48:54;100590.25;;;15.24;74.40
67013;BME280;53926;47.406;19.188;2023-02-18T11:51:27;100578.22;;;15.52;74.00
67013;BME280;53926;47.406;19.188;2023-02-18T11:54:04;100573.19;;;16.76;68.37
67013;BME280;53926;47.406;19.188;2023-02-18T11:56:33;100567.94;;;17.15;67.62
67013;BME280;53926;47.406;19.188;2023-02-18T11:59:01;100560.69;;;16.66;67.33
67013;BME280;53926;47.406;19.188;2023-02-18T12:09:36;100541.97;;;17.46;64.19
67013;BME280;53926;47.406;19.188;2023-02-18T12:12:25;100524.84;;;17.98;61.53
67013;BME280;53926;47.406;19.188;2023-02-18T12:14:53;100518.16;;;17.36;63.58
67013;BME280;53926;47.406;19.188;2023-02-18T12:22:30;100518.37;;;18.16;60.51
67013;BME280;53926;47.406;19.188;2023-02-18T12:31:04;100498.69;;;16.48;67.77
67013;BME280;53926;47.406;19.188;2023-02-18T12:36:23;100493.09;;;16.44;66.23
67013;BME280;53926;47.406;19.188;2023-02-18T12:44:40;100487.13;;;16.88;65.93
67013;BME280;53926;47.406;19.188;2023-02-18T12:56:23;100477.84;;;20.26;51.82
67013;BME280;53926;47.406;19.188;2023-02-18T13:01:44;100468.16;;;18.33;55.87
67013;BME280;53926;47.406;19.188;2023-02-18T13:09:56;100452.44;;;18.48;55.24
67013;BME280;53926;47.406;19.188;2023-02-18T13:15:42;100436.78;;;17.29;60.26
67013;BME280;53926;47.406;19.188;2023-02-18T13:21:33;100436.94;;;18.09;56.92
67013;BME280;53926;47.406;19.188;2023-02-18T13:24:05;100439.22;;;18.43;56.38
67013;BME280;53926;47.406;19.188;2023-02-18T13:26:33;100442.06;;;18.31;55.86
67013;BME280;53926;47.406;19.188;2023-02-18T13:29:20;100433.53;;;18.19;55.51
67013;BME280;53926;47.406;19.188;2023-02-18T13:35:01;100415.78;;;18.47;55.50
67013;BME280;53926;47.406;19.188;2023-02-18T13:40:31;100424.94;;;18.87;53.51
67013;BME280;53926;47.406;19.188;2023-02-18T13:46:11;100408.09;;;17.92;56.66
67013;BME280;53926;47.406;19.188;2023-02-18T13:48:56;100403.72;;;17.76;58.01
67013;BME280;53926;47.406;19.188;2023-02-18T13:52:21;100397.31;;;17.02;60.55
67013;BME280;53926;47.406;19.188;2023-02-18T13:55:17;100387.53;;;16.97;59.97
67013;BME280;53926;47.406;19.188;2023-02-18T13:57:52;100382.09;;;16.59;62.34
67013;BME280;53926;47.406;19.188;2023-02-18T14:00:23;100381.78;;;16.34;63.53
67013;BME280;53926;47.406;19.188;2023-02-18T14:03:00;100373.47;;;16.20;64.09
67013;BME280;53926;47.406;19.188;2023-02-18T14:05:38;100372.03;;;16.12;63.97
67013;BME280;53926;47.406;19.188;2023-02-18T14:11:30;100373.50;;;16.03;64.85
67013;BME280;53926;47.406;19.188;2023-02-18T14:17:33;100366.88;;;16.17;64.62
67013;BME280;53926;47.406;19.188;2023-02-18T14:22:32;100348.69;;;16.33;63.69
67013;BME280;53926;47.406;19.188;2023-02-18T14:25:03;100341.34;;;16.35;63.45
67013;BME280;53926;47.406;19.188;2023-02-18T14:27:30;100347.50;;;16.45;63.76
67013;BME280;53926;47.406;19.188;2023-02-18T14:30:02;100348.00;;;16.20;64.12
67013;BME280;53926;47.406;19.188;2023-02-18T14:32:29;100340.72;;;15.71;65.48
67013;BME280;53926;47.406;19.188;2023-02-18T14:43:38;100319.09;;;15.64;67.45
67013;BME280;53926;47.406;19.188;2023-02-18T14:46:27;100334.12;;;15.69;66.37
67013;BME280;53926;47.406;19.188;2023-02-18T14:52:04;100328.34;;;15.50;67.60
67013;BME280;53926;47.406;19.188;2023-02-18T14:54:32;100321.91;;;15.58;66.99
67013;BME280;53926;47.406;19.188;2023-02-18T14:57:03;100324.03;;;15.27;66.67
67013;BME280;53926;47.406;19.188;2023-02-18T14:59:38;100332.53;;;15.17;66.93
67013;BME280;53926;47.406;19.188;2023-02-18T15:02:24;100331.53;;;14.89;67.64
67013;BME280;53926;47.406;19.188;2023-02-18T15:04:53;100328.91;;;14.60;67.75
67013;BME280;53926;47.406;19.188;2023-02-18T15:07:20;100326.03;;;14.09;68.91
67013;BME280;53926;47.406;19.188;2023-02-18T15:09:52;100332.19;;;13.91;69.53
67013;BME280;53926;47.406;19.188;2023-02-18T15:12:21;100335.50;;;13.75;70.82
67013;BME280;53926;47.406;19.188;2023-02-18T15:14:52;100333.19;;;13.43;72.29
67013;BME280;53926;47.406;19.188;2023-02-18T15:17:22;100338.25;;;13.26;72.59
67013;BME280;53926;47.406;19.188;2023-02-18T15:19:54;100333.44;;;13.11;73.79
67013;BME280;53926;47.406;19.188;2023-02-18T15:22:23;100319.47;;;12.87;74.49
67013;BME280;53926;47.406;19.188;2023-02-18T15:24:54;100311.06;;;12.85;75.11
67013;BME280;53926;47.406;19.188;2023-02-18T15:27:25;100309.84;;;12.69;75.97